Time;durP1;ratioP1;P1;durP2;ratioP2;P2;SDS_P1;SDS_P2;PMS_P1;PMS_P2;Temp;Humidity;BMP_temperature;BMP_pressure;BME280_temperature;BME280_humidity;BME280_pressure;Samples;Min_cycle;Max_cycle;Signal;HPM_P1;HPM_P2
2023/10/03 00:00:59;;;;;;;7.75;1.85;;;;;;;11.17;100.00;100071.31;5141968;27;20103;-65
2023/10/03 00:03:27;;;;;;;5.43;1.48;;;;;;;11.23;100.00;100068.41;5140986;27;20058;-65
2023/10/03 00:05:55;;;;;;;5.32;1.77;;;;;;;11.06;100.00;100057.91;5150622;27;20533;-65
2023/10/03 00:08:22;;;;;;;7.28;1.90;;;;;;;11.11;100.00;100063.78;5128965;27;20381;-65
2023/10/03 00:10:49;;;;;;;7.88;1.90;;;;;;;10.92;100.00;100051.59;5138105;27;20502;-65
2023/10/03 00:13:19;;;;;;;7.95;1.92;;;;;;;10.99;100.00;100057.38;5137056;27;20115;-65
2023/10/03 00:15:46;;;;;;;7.00;1.80;;;;;;;10.94;100.00;100056.75;5151375;27;20422;-65
2023/10/03 00:18:14;;;;;;;7.78;1.92;;;;;;;11.01;100.00;100055.50;5138644;27;20408;-65
2023/10/03 00:20:42;;;;;;;6.07;1.77;;;;;;;11.14;100.00;100063.63;5134558;27;20051;-65
2023/10/03 00:23:09;;;;;;;6.72;1.85;;;;;;;10.96;100.00;100066.25;5127944;27;20512;-65
2023/10/03 00:25:36;;;;;;;9.02;2.00;;;;;;;11.15;100.00;100065.31;5126074;27;20045;-65
2023/10/03 00:28:05;;;;;;;8.48;2.08;;;;;;;11.22;100.00;100066.69;5131919;27;20047;-65
2023/10/03 00:30:36;;;;;;;5.60;1.60;;;;;;;11.30;100.00;100072.41;5143927;27;20055;-65
2023/10/03 00:33:04;;;;;;;9.90;1.80;;;;;;;11.28;100.00;100074.25;5131394;27;20054;-65
2023/10/03 00:35:32;;;;;;;8.02;2.28;;;;;;;11.19;100.00;100074.69;5151789;27;20146;-65
2023/10/03 00:38:00;;;;;;;6.63;2.05;;;;;;;11.14;100.00;100053.16;5142310;27;20404;-65
2023/10/03 00:40:27;;;;;;;6.15;1.70;;;;;;;11.16;100.00;100061.78;5139030;27;20054;-65
2023/10/03 00:43:00;;;;;;;6.25;1.70;;;;;;;11.23;100.00;100054.44;5127494;27;20044;-65
2023/10/03 00:45:29;;;;;;;8.70;2.08;;;;;;;11.23;100.00;100062.31;5129533;27;20042;-65
2023/10/03 00:48:00;;;;;;;7.68;1.90;;;;;;;11.20;100.00;100060.69;5129787;27;20535;-65
2023/10/03 00:50:29;;;;;;;8.75;2.05;;;;;;;11.23;100.00;100062.31;5129726;27;20047;-65
2023/10/03 00:52:58;;;;;;;6.60;1.75;;;;;;;11.25;100.00;100053.44;5131197;27;20051;-65
2023/10/03 00:55:26;;;;;;;6.15;1.95;;;;;;;11.24;100.00;100048.28;5130593;27;20477;-65
2023/10/03 00:58:02;;;;;;;9.80;2.55;;;;;;;11.21;100.00;100051.91;5130455;27;20047;-65
2023/10/03 01:00:31;;;;;;;5.93;1.42;;;;;;;11.15;100.00;100050.41;5143574;27;20081;-65
2023/10/03 01:02:58;;;;;;;7.07;1.80;;;;;;;11.09;100.00;100047.28;5138206;27;20495;-65
2023/10/03 01:05:25;;;;;;;10.52;1.70;;;;;;;11.07;100.00;100049.16;5133117;27;20095;-65
2023/10/03 01:07:52;;;;;;;11.30;3.00;;;;;;;10.90;100.00;100042.97;5127469;27;20059;-65
2023/10/03 01:10:20;;;;;;;5.93;1.92;;;;;;;10.92;100.00;100021.94;5118899;27;20047;-65
2023/10/03 01:12:49;;;;;;;6.00;1.50;;;;;;;11.04;100.00;100034.41;5132200;27;20054;-65
2023/10/03 01:15:22;;;;;;;6.97;1.70;;;;;;;10.87;100.00;100029.16;5121170;27;20077;-65
2023/10/03 01:17:53;;;;;;;5.43;1.60;;;;;;;11.00;100.00;100027.66;5129668;27;20450;-65
2023/10/03 01:20:29;;;;;;;6.97;1.73;;;;;;;11.11;100.00;100029.72;5137937;27;20583;-65
2023/10/03 01:22:56;;;;;;;6.15;1.80;;;;;;;11.01;100.00;100013.59;5136833;27;20478;-65
2023/10/03 01:25:27;;;;;;;5.53;1.67;;;;;;;11.09;100.00;100014.06;5143290;27;20560;-65
2023/10/03 01:27:55;;;;;;;4.60;1.70;;;;;;;11.09;100.00;100021.09;5123740;27;20054;-65
2023/10/03 01:30:22;;;;;;;9.85;2.00;;;;;;;10.99;100.00;100007.59;5142576;27;20047;-65
2023/10/03 01:32:54;;;;;;;7.10;1.63;;;;;;;10.96;100.00;100002.50;5129966;27;20071;-65
2023/10/03 01:35:22;;;;;;;5.88;1.60;;;;;;;10.90;100.00;99993.19;5121202;27;20053;-65
2023/10/03 01:37:50;;;;;;;4.95;1.50;;;;;;;10.96;100.00;100000.75;5137261;27;20712;-65
2023/10/03 01:40:17;;;;;;;6.05;1.77;;;;;;;10.75;100.00;99994.00;5137615;27;20427;-65
2023/10/03 01:42:47;;;;;;;6.97;1.67;;;;;;;10.74;100.00;99985.28;5119656;28;20055;-65
2023/10/03 01:45:17;;;;;;;10.60;2.00;;;;;;;10.70;100.00;99973.25;5139321;27;20498;-65
2023/10/03 01:47:49;;;;;;;6.85;1.60;;;;;;;10.77;100.00;99977.25;5123967;27;20071;-65
2023/10/03 01:50:20;;;;;;;7.38;1.80;;;;;;;10.78;100.00;99967.63;5121891;28;20484;-65
2023/10/03 01:52:48;;;;;;;5.40;1.60;;;;;;;10.91;100.00;99967.88;5143360;27;20508;-65
2023/10/03 01:55:20;;;;;;;6.20;1.73;;;;;;;10.92;100.00;99973.00;5137615;27;20050;-65
2023/10/03 01:57:48;;;;;;;7.60;1.92;;;;;;;10.95;100.00;99969.41;5139534;27;20051;-65
2023/10/03 02:02:47;;;;;;;9.07;2.10;;;;;;;10.97;100.00;99957.06;5133949;27;20057;-65
2023/10/03 02:05:14;;;;;;;6.55;1.42;;;;;;;10.96;100.00;99951.00;5140106;27;20046;-65
2023/10/03 02:07:43;;;;;;;4.68;1.45;;;;;;;10.91;100.00;99925.97;5126377;27;20047;-65
2023/10/03 02:10:12;;;;;;;6.05;1.55;;;;;;;10.98;100.00;99945.69;5120591;27;20667;-65
2023/10/03 02:12:48;;;;;;;6.28;1.50;;;;;;;10.99;100.00;99939.50;5128310;27;20507;-65
2023/10/03 02:15:16;;;;;;;8.75;2.05;;;;;;;10.97;100.00;99943.97;5130553;27;20054;-65
2023/10/03 02:17:46;;;;;;;7.22;1.67;;;;;;;10.97;100.00;99925.63;5132483;27;20567;-65
2023/10/03 02:20:19;;;;;;;7.60;1.58;;;;;;;11.09;100.00;99937.25;5132478;27;20057;-65
2023/10/03 02:22:53;;;;;;;6.32;1.63;;;;;;;11.05;100.00;99936.56;5133396;27;20055;-65
2023/10/03 02:25:22;;;;;;;7.95;2.42;;;;;;;11.06;100.00;99933.00;5133166;27;20130;-65
2023/10/03 02:27:50;;;;;;;6.85;1.92;;;;;;;11.07;100.00;99939.94;5132446;27;20039;-65
2023/10/03 02:30:23;;;;;;;7.45;1.77;;;;;;;10.93;100.00;99940.66;5132530;27;20459;-65
2023/10/03 02:32:54;;;;;;;10.05;1.85;;;;;;;10.95;100.00;99933.56;5130587;27;20107;-65
2023/10/03 02:35:25;;;;;;;6.60;1.73;;;;;;;10.91;100.00;99924.19;5132976;27;20050;-64
2023/10/03 02:37:57;;;;;;;5.88;1.70;;;;;;;10.90;100.00;99921.66;5132701;27;20477;-64
2023/10/03 02:40:28;;;;;;;6.72;2.17;;;;;;;11.00;100.00;99930.72;5132112;27;20051;-64
2023/10/03 02:42:55;;;;;;;7.38;1.98;;;;;;;10.86;100.00;99920.97;5132711;27;20046;-64
2023/10/03 02:45:23;;;;;;;8.82;1.77;;;;;;;10.88;100.00;99905.16;5134739;27;20120;-64
2023/10/03 02:47:58;;;;;;;6.03;1.48;;;;;;;10.90;100.00;99917.25;5139536;27;20069;-64
2023/10/03 02:50:29;;;;;;;5.10;1.52;;;;;;;10.89;100.00;99912.09;5128539;27;20416;-64
2023/10/03 02:52:56;;;;;;;7.15;1.83;;;;;;;10.91;100.00;99907.63;5125496;27;20049;-64
2023/10/03 02:55:22;;;;;;;3.78;1.50;;;;;;;10.83;100.00;99908.84;5140570;27;20047;-64
2023/10/03 02:57:49;;;;;;;8.48;1.95;;;;;;;10.76;100.00;99888.31;5130163;27;20438;-64
2023/10/03 03:00:17;;;;;;;4.93;1.65;;;;;;;10.80;100.00;99895.06;5120972;27;20077;-64
2023/10/03 03:02:47;;;;;;;5.13;1.40;;;;;;;10.81;100.00;99899.41;5135236;27;20057;-64
2023/10/03 03:05:15;;;;;;;4.65;1.55;;;;;;;10.80;100.00;99897.69;5143171;27;20480;-64
2023/10/03 03:07:46;;;;;;;10.23;1.80;;;;;;;10.76;100.00;99896.16;5127770;27;20046;-64
2023/10/03 03:10:14;;;;;;;7.05;2.05;;;;;;;10.78;100.00;99895.19;5132065;27;20047;-64
2023/10/03 03:12:42;;;;;;;5.05;1.42;;;;;;;10.72;100.00;99882.38;5133825;27;20047;-64
2023/10/03 03:15:22;;;;;;;6.65;1.70;;;;;;;10.70;100.00;99893.88;5144618;27;20046;-64
2023/10/03 03:17:51;;;;;;;7.57;1.98;;;;;;;10.76;100.00;99889.16;5123409;27;20477;-64
2023/10/03 03:20:26;;;;;;;7.95;2.30;;;;;;;10.83;100.00;99887.06;5138055;27;20042;-64
2023/10/03 03:22:53;;;;;;;7.65;2.63;;;;;;;10.70;100.00;99868.53;5135657;27;20131;-64
2023/10/03 03:25:36;;;;;;;8.85;2.28;;;;;;;10.74;100.00;99880.53;5132686;27;20043;-64
2023/10/03 03:28:12;;;;;;;6.00;1.75;;;;;;;10.77;100.00;99877.75;5127270;27;20122;-64
2023/10/03 03:30:45;;;;;;;10.65;2.10;;;;;;;10.77;100.00;99880.38;5121548;27;20412;-64
2023/10/03 03:33:14;;;;;;;5.55;1.88;;;;;;;10.75;100.00;99878.78;5132209;27;20562;-64
2023/10/03 03:35:41;;;;;;;12.48;2.05;;;;;;;10.61;100.00;99866.41;5139954;27;20422;-64
2023/10/03 03:38:15;;;;;;;5.50;1.60;;;;;;;10.66;100.00;99869.63;5120129;27;20102;-64
2023/10/03 03:40:56;;;;;;;6.70;1.77;;;;;;;10.72;100.00;99874.53;5131902;27;20055;-64
2023/10/03 03:43:23;;;;;;;7.65;1.70;;;;;;;10.63;100.00;99861.94;5128950;27;20062;-64
2023/10/03 03:45:51;;;;;;;9.88;1.83;;;;;;;10.70;100.00;99875.56;5131075;27;20061;-64
2023/10/03 03:48:22;;;;;;;12.43;2.13;;;;;;;10.53;100.00;99845.84;5141353;27;20078;-64
2023/10/03 03:50:50;;;;;;;6.93;1.63;;;;;;;10.53;100.00;99858.09;5140155;27;20043;-64
2023/10/03 03:53:18;;;;;;;11.48;2.33;;;;;;;10.55;100.00;99851.88;5130173;27;20468;-64
2023/10/03 03:55:46;;;;;;;7.97;2.03;;;;;;;10.54;100.00;99849.31;5128948;27;20061;-64
2023/10/03 03:58:17;;;;;;;7.82;1.60;;;;;;;10.55;100.00;99846.63;5124871;27;20551;-64
2023/10/03 04:00:47;;;;;;;8.23;2.00;;;;;;;10.52;100.00;99845.94;5130175;27;20050;-65
2023/10/03 04:03:15;;;;;;;7.82;2.15;;;;;;;10.50;100.00;99842.53;5130895;27;20415;-64
2023/10/03 04:05:42;;;;;;;9.40;2.20;;;;;;;10.54;100.00;99849.31;5130083;27;20043;-64
2023/10/03 04:08:09;;;;;;;10.57;1.73;;;;;;;10.46;100.00;99849.69;5129008;27;20055;-65
2023/10/03 04:10:37;;;;;;;5.93;1.60;;;;;;;10.51;100.00;99845.06;5135612;27;20054;-64
2023/10/03 04:13:10;;;;;;;9.60;1.85;;;;;;;10.48;100.00;99831.31;5131332;27;20396;-64
2023/10/03 04:15:39;;;;;;;;;;;;;;;10.62;100.00;99836.66;5146161;27;20510;-64
2023/10/03 04:18:09;;;;;;;5.70;1.50;;;;;;;10.49;100.00;99838.25;5125136;27;19927;-64
2023/10/03 04:20:39;;;;;;;5.28;1.55;;;;;;;10.48;100.00;99837.38;5149850;27;20100;-64
2023/10/03 04:23:08;;;;;;;7.28;2.17;;;;;;;10.49;100.00;99839.06;5140029;27;20051;-64
2023/10/03 04:25:37;;;;;;;5.57;1.50;;;;;;;10.39;100.00;99846.56;5137942;27;20043;-64
2023/10/03 04:28:05;;;;;;;10.30;1.80;;;;;;;10.55;100.00;99853.63;5126955;27;20047;-65
2023/10/03 04:30:32;;;;;;;5.63;1.63;;;;;;;10.42;100.00;99838.53;5140338;27;20055;-65
2023/10/03 04:32:58;;;;;;;7.65;1.98;;;;;;;10.53;100.00;99853.69;5138525;27;20043;-64
2023/10/03 04:35:25;;;;;;;8.15;2.20;;;;;;;10.49;100.00;99844.31;5149364;27;20095;-64
2023/10/03 04:37:52;;;;;;;6.75;1.75;;;;;;;10.45;100.00;99834.94;5118590;27;20319;-65
2023/10/03 04:40:28;;;;;;;7.10;1.92;;;;;;;10.45;100.00;99824.47;5129620;27;20054;-64
2023/10/03 04:42:58;;;;;;;7.75;1.67;;;;;;;10.41;100.00;99839.47;5137553;27;20043;-65
2023/10/03 04:45:26;;;;;;;3.75;1.25;;;;;;;10.42;100.00;99838.53;5128739;27;20047;-65
2023/10/03 04:47:53;;;;;;;4.35;1.38;;;;;;;10.35;100.00;99833.72;5126579;27;20054;-64
2023/10/03 04:50:25;;;;;;;7.43;1.67;;;;;;;10.41;100.00;99826.41;5129652;27;20069;-64
2023/10/03 04:52:54;;;;;;;7.60;1.55;;;;;;;10.29;100.00;99826.13;5145061;27;20058;-64
2023/10/03 04:55:22;;;;;;;10.40;2.03;;;;;;;10.26;100.00;99825.38;5130914;27;20047;-64
2023/10/03 04:57:53;;;;;;;8.82;2.13;;;;;;;10.35;100.00;99834.53;5128694;27;20075;-64
2023/10/03 05:00:21;;;;;;;8.93;1.95;;;;;;;10.40;100.00;99829.09;5151440;27;20051;-65
2023/10/03 05:02:52;;;;;;;5.93;1.80;;;;;;;10.33;100.00;99818.09;5136346;27;20473;-64
2023/10/03 05:05:26;;;;;;;8.13;1.73;;;;;;;10.40;100.00;99823.84;5130123;27;20050;-65
2023/10/03 05:07:58;;;;;;;6.30;1.60;;;;;;;10.40;100.00;99813.38;5123258;27;20538;-64
2023/10/03 05:10:30;;;;;;;7.05;1.77;;;;;;;10.26;100.00;99807.06;5129815;27;20055;-65
2023/10/03 05:12:57;;;;;;;10.23;2.13;;;;;;;10.22;100.00;99808.13;5128849;27;20043;-65
2023/10/03 05:15:27;;;;;;;8.18;2.13;;;;;;;10.03;100.00;99781.22;5151198;27;20495;-64
2023/10/03 05:17:54;;;;;;;12.20;2.38;;;;;;;10.21;100.00;99803.81;5135926;27;20488;-64
2023/10/03 05:20:21;;;;;;;10.98;2.20;;;;;;;10.14;100.00;99791.97;5129099;27;20047;-65
2023/10/03 05:22:48;;;;;;;8.88;2.13;;;;;;;10.13;100.00;99794.66;5129954;27;20051;-65
2023/10/03 05:25:17;;;;;;;12.27;2.83;;;;;;;10.26;100.00;99808.81;5149104;27;20547;-64
2023/10/03 05:27:48;;;;;;;6.38;1.77;;;;;;;10.43;100.00;99801.00;5137022;27;20554;-64
2023/10/03 05:30:15;;;;;;;9.95;2.10;;;;;;;10.33;100.00;99789.31;5127325;27;20043;-64
2023/10/03 05:32:46;;;;;;;9.60;2.65;;;;;;;10.40;100.00;99792.47;5130260;27;20395;-65
2023/10/03 05:35:13;;;;;;;10.38;2.42;;;;;;;10.29;100.00;99792.97;5125532;27;20051;-65
2023/10/03 05:37:40;;;;;;;6.10;2.00;;;;;;;10.36;100.00;99790.94;5129451;27;20616;-65
2023/10/03 05:40:20;;;;;;;36.85;3.22;;;;;;;10.47;100.00;99787.75;5129339;27;20090;-64
2023/10/03 05:42:47;;;;;;;13.82;2.90;;;;;;;10.43;100.00;99794.91;5119446;28;20186;-64
2023/10/03 05:45:15;;;;;;;8.95;3.00;;;;;;;10.56;100.00;99801.19;5113469;27;20680;-65
2023/10/03 05:47:46;;;;;;;6.97;2.55;;;;;;;10.61;100.00;99793.94;5116958;28;20085;-65
2023/10/03 05:50:15;;;;;;;10.70;2.20;;;;;;;10.67;100.00;99789.31;5113242;27;20058;-64
2023/10/03 05:52:45;;;;;;;8.07;2.13;;;;;;;10.67;100.00;99794.56;5127229;27;20062;-65
2023/10/03 05:55:13;;;;;;;8.05;2.22;;;;;;;10.74;100.00;99782.81;5122662;27;20051;-64
2023/10/03 05:57:42;;;;;;;10.52;2.75;;;;;;;10.77;100.00;99803.63;5129147;27;20039;-64
2023/10/03 06:00:13;;;;;;;7.18;1.80;;;;;;;10.81;100.00;99803.34;5130556;27;20058;-65
2023/10/03 06:02:40;;;;;;;8.25;2.20;;;;;;;10.78;100.00;99805.28;5116232;27;20048;-65
2023/10/03 06:05:07;;;;;;;9.43;1.65;;;;;;;10.86;100.00;99779.53;5131758;27;20058;-64
2023/10/03 06:07:36;;;;;;;9.05;1.95;;;;;;;10.87;100.00;99794.34;5125421;27;20039;-64
2023/10/03 06:10:04;;;;;;;7.35;1.92;;;;;;;11.05;100.00;99789.88;5133247;27;20047;-65
2023/10/03 06:12:31;;;;;;;10.82;2.20;;;;;;;10.91;100.00;99776.69;5121184;27;20055;-65
2023/10/03 06:14:58;;;;;;;10.27;1.98;;;;;;;10.94;100.00;99772.13;5123688;27;20082;-64
2023/10/03 06:17:25;;;;;;;5.68;1.80;;;;;;;11.07;100.00;99781.94;5127643;27;20281;-63
2023/10/03 06:19:52;;;;;;;11.38;2.13;;;;;;;11.14;100.00;99776.28;5124113;27;20054;-63
2023/10/03 06:22:19;;;;;;;6.97;1.90;;;;;;;11.03;100.00;99776.03;5124238;27;20085;-63
2023/10/03 06:24:45;;;;;;;9.30;2.08;;;;;;;11.04;100.00;99780.31;5125651;27;20047;-63
2023/10/03 06:27:12;;;;;;;6.43;1.60;;;;;;;11.01;100.00;99768.25;5129696;27;20492;-63
2023/10/03 06:29:40;;;;;;;7.40;1.98;;;;;;;10.99;100.00;99775.31;5119607;27;20130;-63
2023/10/03 06:32:08;;;;;;;6.70;1.70;;;;;;;10.94;100.00;99756.41;5125623;27;20527;-64
2023/10/03 06:34:35;;;;;;;8.70;2.38;;;;;;;11.01;100.00;99759.53;5126800;27;20047;-64
2023/10/03 06:37:04;;;;;;;7.35;2.00;;;;;;;10.91;100.00;99756.56;5133639;27;20043;-63
2023/10/03 06:39:30;;;;;;;11.52;2.10;;;;;;;11.06;100.00;99770.59;5121308;27;21165;-64
2023/10/03 06:41:58;;;;;;;6.90;2.10;;;;;;;11.07;100.00;99780.16;5131794;27;20058;-64
2023/10/03 06:44:25;;;;;;;7.88;1.75;;;;;;;11.12;100.00;99785.13;5131415;27;20456;-64
2023/10/03 06:46:53;;;;;;;9.10;2.00;;;;;;;11.14;100.00;99781.50;5121648;27;20481;-63
2023/10/03 06:49:23;;;;;;;10.55;2.13;;;;;;;11.15;100.00;99771.88;5125154;27;20145;-64
2023/10/03 06:51:51;;;;;;;8.82;2.13;;;;;;;11.04;100.00;99772.47;5125922;27;20056;-64
2023/10/03 06:54:17;;;;;;;8.70;2.40;;;;;;;11.22;100.00;99781.06;5130187;27;20412;-64
2023/10/03 06:56:44;;;;;;;14.38;2.63;;;;;;;11.10;100.00;99787.00;5131659;27;20050;-63
2023/10/03 06:59:11;;;;;;;8.55;2.17;;;;;;;11.31;100.00;99780.56;5132400;27;20043;-64
2023/10/03 07:01:38;;;;;;;8.23;1.90;;;;;;;11.35;100.00;99778.59;5128933;27;20409;-64
2023/10/03 07:04:06;;;;;;;8.77;2.20;;;;;;;11.26;100.00;99766.03;5129397;27;20523;-64
2023/10/03 07:06:34;;;;;;;7.97;2.15;;;;;;;11.34;100.00;99769.91;5129459;27;20122;-64
2023/10/03 07:09:05;;;;;;;12.07;2.70;;;;;;;11.50;100.00;99776.91;5124954;27;20131;-64
2023/10/03 07:11:33;;;;;;;8.50;1.90;;;;;;;11.43;100.00;99791.31;5131467;27;20101;-64
2023/10/03 07:14:00;;;;;;;7.47;1.77;;;;;;;11.39;100.00;99788.00;5130804;27;20499;-63
2023/10/03 07:16:30;;;;;;;7.40;2.15;;;;;;;11.35;100.00;99781.22;5125856;27;20404;-64
2023/10/03 07:18:57;;;;;;;8.43;2.22;;;;;;;11.46;100.00;99791.97;5125409;27;20411;-64
2023/10/03 07:21:23;;;;;;;10.23;2.40;;;;;;;11.49;100.00;99786.56;5132284;27;20532;-64
2023/10/03 07:23:53;;;;;;;8.23;2.05;;;;;;;11.54;100.00;99792.41;5133112;27;20392;-63
2023/10/03 07:26:20;;;;;;;9.30;2.60;;;;;;;11.48;100.00;99790.09;5128270;27;20480;-64
2023/10/03 07:28:46;;;;;;;9.70;2.03;;;;;;;11.47;100.00;99800.66;5126552;27;20043;-64
2023/10/03 07:31:14;;;;;;;9.23;2.17;;;;;;;11.59;100.00;99792.94;5131126;27;20566;-63
2023/10/03 07:33:44;;;;;;;11.13;2.50;;;;;;;11.53;100.00;99795.94;5130282;27;20043;-63
2023/10/03 07:36:12;;;;;;;8.43;2.00;;;;;;;11.57;100.00;99783.50;5132701;27;20046;-63
2023/10/03 07:38:38;;;;;;;12.20;2.08;;;;;;;11.53;100.00;99782.00;5132607;27;20134;-63
2023/10/03 07:41:13;;;;;;;8.05;2.25;;;;;;;11.40;100.00;99779.19;5130779;27;20058;-65
2023/10/03 07:43:40;;;;;;;7.70;1.92;;;;;;;11.59;100.00;99785.09;5129783;27;20435;-64
2023/10/03 07:46:07;;;;;;;13.63;2.10;;;;;;;11.69;100.00;99801.16;5126491;27;20073;-64
2023/10/03 07:48:34;;;;;;;9.00;2.30;;;;;;;11.74;100.00;99796.50;5126182;27;20058;-64
2023/10/03 07:51:05;;;;;;;10.90;3.15;;;;;;;11.58;100.00;99762.44;5122442;27;20058;-64
2023/10/03 07:53:31;;;;;;;11.10;2.20;;;;;;;12.27;100.00;99790.84;5121916;27;20058;-64
2023/10/03 07:55:59;;;;;;;8.43;2.28;;;;;;;12.35;100.00;99794.69;5118661;27;20066;-64
2023/10/03 07:58:32;;;;;;;9.93;2.22;;;;;;;12.37;100.00;99789.34;5118747;27;20540;-64
2023/10/03 08:00:59;;;;;;;7.43;2.20;;;;;;;12.30;100.00;99794.13;5115736;27;20505;-64
2023/10/03 08:03:28;;;;;;;6.65;1.88;;;;;;;12.37;100.00;99799.84;5131242;27;20047;-64
2023/10/03 08:05:57;;;;;;;8.07;1.83;;;;;;;12.23;100.00;99805.91;5132660;27;20134;-64
2023/10/03 08:08:25;;;;;;;9.73;2.42;;;;;;;12.44;100.00;99797.72;5132089;27;20876;-64
2023/10/03 08:10:52;;;;;;;8.88;2.20;;;;;;;12.42;100.00;99802.22;5131847;27;20043;-64
2023/10/03 08:13:18;;;;;;;8.52;1.77;;;;;;;12.43;100.00;99802.13;5119332;27;20502;-64
2023/10/03 08:15:45;;;;;;;8.35;1.92;;;;;;;12.47;100.00;99801.00;5132443;27;20057;-64
2023/10/03 08:18:18;;;;;;;14.65;2.58;;;;;;;12.33;100.00;99801.81;5131004;27;20047;-64
2023/10/03 08:20:53;;;;;;;11.52;2.97;;;;;;;12.52;100.00;99806.81;5134615;27;20051;-64
2023/10/03 08:23:21;;;;;;;8.10;1.88;;;;;;;13.11;100.00;99806.69;5127307;27;20051;-64
2023/10/03 08:25:47;;;;;;;10.63;2.00;;;;;;;13.81;100.00;99799.63;5139006;27;20051;-66
2023/10/03 08:28:20;;;;;;;10.23;2.00;;;;;;;13.79;100.00;99806.78;5130059;27;20092;-64
2023/10/03 08:30:50;;;;;;;6.35;1.75;;;;;;;13.66;100.00;99812.00;5126778;27;20039;-68
2023/10/03 08:33:17;;;;;;;7.03;1.88;;;;;;;13.46;100.00;99808.88;5129387;27;20083;-68
2023/10/03 08:35:46;;;;;;;5.15;1.45;;;;;;;13.39;100.00;99815.47;5128908;27;20103;-67
2023/10/03 08:38:13;;;;;;;9.35;1.90;;;;;;;13.06;100.00;99814.00;5130913;27;20073;-67
2023/10/03 08:40:49;;;;;;;8.23;1.75;;;;;;;13.14;100.00;99826.69;5129901;27;20051;-67
2023/10/03 08:43:25;;;;;;;6.57;1.50;;;;;;;13.32;100.00;99821.25;5139043;27;20050;-67
2023/10/03 08:45:56;;;;;;;9.23;1.80;;;;;;;13.39;100.00;99815.47;5132816;27;20051;-67
2023/10/03 08:48:27;;;;;;;7.10;1.55;;;;;;;13.28;100.00;99812.66;5126801;27;20115;-68
2023/10/03 08:50:58;;;;;;;7.68;1.95;;;;;;;13.11;100.00;99827.69;5129828;27;20134;-68
2023/10/03 08:53:28;;;;;;;7.22;1.80;;;;;;;13.15;100.00;99830.97;5128278;27;20080;-67
2023/10/03 08:55:58;;;;;;;8.25;1.88;;;;;;;13.07;100.00;99828.00;5139791;27;20059;-68
2023/10/03 08:58:28;;;;;;;8.68;1.70;;;;;;;13.19;100.00;99827.25;5129207;27;20049;-67
2023/10/03 09:00:59;;;;;;;5.93;1.50;;;;;;;13.19;100.00;99829.88;5129588;27;20151;-67
2023/10/03 09:03:51;;;;;;;5.43;1.75;;;;;;;13.15;100.00;99833.59;5129706;27;20043;-68
2023/10/03 09:06:20;;;;;;;6.45;1.50;;;;;;;13.10;100.00;99828.66;5147642;27;20046;-68
2023/10/03 09:09:08;;;;;;;5.93;1.45;;;;;;;13.19;100.00;99829.88;5140644;27;20544;-67
2023/10/03 09:11:37;;;;;;;5.35;1.40;;;;;;;13.19;100.00;99827.25;5130703;27;20099;-67
2023/10/03 09:14:09;;;;;;;8.88;1.95;;;;;;;13.19;100.00;99827.25;5131238;27;20051;-68
2023/10/03 09:16:39;;;;;;;7.10;1.63;;;;;;;13.52;100.00;99841.00;5148258;27;20058;-68
2023/10/03 09:19:09;;;;;;;4.75;1.42;;;;;;;13.99;100.00;99839.69;5130653;27;20057;-67
2023/10/03 09:21:36;;;;;;;6.88;1.90;;;;;;;14.02;100.00;99832.44;5145796;27;20415;-67
2023/10/03 09:24:15;;;;;;;6.70;1.80;;;;;;;14.25;100.00;99845.84;5131089;27;20089;-67
2023/10/03 09:26:46;;;;;;;8.02;1.55;;;;;;;14.47;100.00;99824.19;5129717;27;20043;-67
2023/10/03 09:29:30;;;;;;;4.50;1.30;;;;;;;14.70;100.00;99835.78;5139604;27;20445;-68
2023/10/03 09:32:12;;;;;;;3.00;1.20;;;;;;;14.92;100.00;99840.41;5137353;27;20400;-67
2023/10/03 09:34:45;;;;;;;4.60;1.17;;;;;;;15.17;100.00;99826.34;5151460;27;20050;-67
2023/10/03 09:37:12;;;;;;;4.65;1.13;;;;;;;15.40;100.00;99826.47;5130068;27;20095;-68
2023/10/03 09:39:39;;;;;;;2.78;0.93;;;;;;;15.59;100.00;99831.25;5137417;27;20047;-67
2023/10/03 09:42:16;;;;;;;3.70;1.50;;;;;;;15.64;100.00;99826.50;5138455;27;20043;-66
2023/10/03 09:44:51;;;;;;;7.72;1.30;;;;;;;15.49;100.00;99809.13;5117313;28;20042;-66
2023/10/03 09:47:27;;;;;;;8.40;1.70;;;;;;;15.54;100.00;99828.13;5129819;27;20047;-66
2023/10/03 09:50:03;;;;;;;4.55;1.10;;;;;;;15.90;100.00;99823.75;5117297;28;20107;-66
2023/10/03 09:52:32;;;;;;;4.65;1.30;;;;;;;16.05;100.00;99829.69;5145967;27;20492;-66
2023/10/03 09:55:17;;;;;;;7.47;1.20;;;;;;;16.21;100.00;99839.94;5144919;27;20200;-66
2023/10/03 09:57:51;;;;;;;5.70;1.17;;;;;;;16.34;100.00;99822.19;5125631;27;20036;-66
2023/10/03 10:00:39;;;;;;;4.20;1.05;;;;;;;16.39;100.00;99821.88;5129623;27;20072;-65
2023/10/03 10:03:13;;;;;;;5.88;1.40;;;;;;;16.50;100.00;99832.44;5144598;27;20533;-66
2023/10/03 10:06:38;;;;;;;2.40;0.98;;;;;;;16.83;100.00;99836.94;5130830;27;20055;-65
2023/10/03 10:09:23;;;;;;;3.30;1.10;;;;;;;16.93;100.00;99826.50;5066262;28;20080;-65
2023/10/03 10:12:12;;;;;;;5.88;1.13;;;;;;;17.20;100.00;99828.75;5067181;28;20055;-66
2023/10/03 10:15:00;;;;;;;3.22;1.02;;;;;;;17.16;100.00;99839.72;5116784;28;20745;-66
2023/10/03 10:17:55;;;;;;;3.30;0.82;;;;;;;17.09;100.00;99842.00;5135130;27;20074;-65
2023/10/03 10:20:38;;;;;;;6.20;1.30;;;;;;;17.09;100.00;99842.00;5114340;28;20225;-65
2023/10/03 10:25:49;;;;;;;2.35;0.95;;;;;;;17.23;100.00;99843.56;5144312;27;20392;-65
2023/10/03 10:28:37;;;;;;;2.08;0.90;;;;;;;17.26;100.00;99841.50;5120733;27;20485;-66
2023/10/03 10:31:25;;;;;;;4.10;1.00;;;;;;;17.19;100.00;99847.41;5141223;27;20054;-66
2023/10/03 10:34:21;;;;;;;4.75;1.20;;;;;;;17.25;100.00;99849.56;5131467;27;20051;-66
2023/10/03 10:37:03;;;;;;;3.92;1.23;;;;;;;17.21;100.00;99858.69;5131379;27;20047;-65
2023/10/03 10:39:56;;;;;;;5.00;1.77;;;;;;;17.29;100.00;99855.47;5133756;27;20382;-65
2023/10/03 10:42:26;;;;;;;3.95;1.10;;;;;;;17.59;100.00;99849.50;5143675;27;20039;-65
2023/10/03 10:45:14;;;;;;;2.90;1.13;;;;;;;17.76;100.00;99864.00;5134318;27;20051;-65
2023/10/03 10:47:46;;;;;;;4.03;1.15;;;;;;;17.75;100.00;99851.75;5133557;27;20050;-66
2023/10/03 10:50:13;;;;;;;2.97;0.80;;;;;;;17.76;100.00;99862.22;5154607;27;20054;-65
2023/10/03 10:53:02;;;;;;;3.65;1.10;;;;;;;17.57;100.00;99851.44;5154517;27;20077;-66
2023/10/03 10:55:29;;;;;;;3.90;0.95;;;;;;;17.74;100.00;99869.44;5155111;27;20046;-66
2023/10/03 10:58:12;;;;;;;2.35;0.90;;;;;;;17.65;100.00;99875.47;5139888;27;20074;-66
2023/10/03 11:00:39;;;;;;;3.42;1.10;;;;;;;17.14;100.00;99871.59;5124941;27;20137;-65
2023/10/03 11:03:07;;;;;;;2.78;0.90;;;;;;;17.11;100.00;99873.63;5133005;27;20054;-67
2023/10/03 11:05:47;;;;;;;4.82;1.00;;;;;;;17.20;100.00;99872.91;5134514;27;20054;-66
2023/10/03 11:08:15;;;;;;;2.30;0.90;;;;;;;17.46;100.00;99876.13;5133379;27;20415;-66
2023/10/03 11:10:54;;;;;;;3.67;1.10;;;;;;;17.37;100.00;99892.72;5132898;27;20099;-66
2023/10/03 11:13:21;;;;;;;4.43;1.20;;;;;;;17.42;100.00;99898.47;5130615;27;20085;-66
2023/10/03 11:15:52;;;;;;;4.63;1.20;;;;;;;17.35;100.00;99902.56;5132887;27;20130;-67
2023/10/03 11:18:38;;;;;;;5.68;1.30;;;;;;;17.36;100.00;99891.03;5129719;27;20043;-66
2023/10/03 11:21:05;;;;;;;6.57;1.85;;;;;;;17.18;100.00;99909.22;5132141;27;20126;-66
2023/10/03 11:23:32;;;;;;;5.35;1.75;;;;;;;17.53;100.00;99903.78;5133038;27;20047;-67
2023/10/03 11:26:00;;;;;;;5.93;1.77;;;;;;;17.53;100.00;99900.25;5132611;27;20142;-66
2023/10/03 11:28:28;;;;;;;4.50;1.33;;;;;;;17.32;100.00;99913.44;5132900;27;20126;-66
2023/10/03 11:31:06;;;;;;;4.93;1.67;;;;;;;17.41;100.00;99905.59;5132946;27;20047;-66
2023/10/03 11:33:46;;;;;;;5.95;1.40;;;;;;;17.23;100.00;99907.88;5133095;27;20516;-66
2023/10/03 11:36:14;;;;;;;5.15;1.65;;;;;;;17.40;100.00;99911.81;5129997;27;20058;-67
2023/10/03 11:38:44;;;;;;;6.45;1.70;;;;;;;17.40;100.00;99922.41;5130353;27;20453;-67
2023/10/03 11:41:11;;;;;;;5.80;1.30;;;;;;;17.26;99.72;99912.94;5120686;27;20531;-66
2023/10/03 11:43:49;;;;;;;4.53;1.10;;;;;;;17.31;98.77;99922.31;5129378;27;20047;-68
2023/10/03 11:46:15;;;;;;;3.20;1.15;;;;;;;17.66;100.00;99922.16;5130831;27;20399;-68